createdAt,value
2023-03-17T00:01:39.812Z,101450.94
2023-03-17T00:04:11.704Z,101452.59
2023-03-17T00:06:40.357Z,101435.22
2023-03-17T00:09:15.903Z,101453.41
2023-03-17T00:11:44.429Z,101447.37
2023-03-17T00:14:12.341Z,101445.59
2023-03-17T00:16:43.015Z,101442.12
2023-03-17T00:19:17.204Z,101441.16
2023-03-17T00:21:48.249Z,101450.72
2023-03-17T00:24:16.132Z,101451.59
2023-03-17T00:26:43.917Z,101449.81
2023-03-17T00:29:12.033Z,101447.25
2023-03-17T00:31:39.804Z,101442.81
2023-03-17T00:34:12.258Z,101430.72
2023-03-17T00:36:40.858Z,101445.38
2023-03-17T00:41:40.827Z,101441.94
2023-03-17T00:44:08.389Z,101444.50
2023-03-17T00:46:38.167Z,101430.78
2023-03-17T00:49:20.686Z,101433.31
2023-03-17T00:51:49.792Z,101434.22
2023-03-17T00:54:19.606Z,101433.22
2023-03-17T00:56:48.604Z,101435.81
2023-03-17T00:59:30.725Z,101423.69
2023-03-17T01:01:58.772Z,101412.50
2023-03-17T01:04:26.480Z,101421.06
2023-03-17T01:06:54.444Z,101424.50
2023-03-17T01:09:26.405Z,101416.69
2023-03-17T01:11:55.773Z,101414.16
2023-03-17T01:14:25.000Z,101415.88
2023-03-17T01:16:55.649Z,101416.69
2023-03-17T01:19:23.781Z,101424.38
2023-03-17T01:21:52.351Z,101417.44
2023-03-17T01:24:19.970Z,101410.50
2023-03-17T01:26:47.470Z,101409.69
2023-03-17T01:29:16.652Z,101402.72
2023-03-17T01:31:46.281Z,101407.97
2023-03-17T01:34:13.920Z,101395.78
2023-03-17T01:36:43.320Z,101400.94
2023-03-17T01:39:11.177Z,101410.47
2023-03-17T01:41:40.313Z,101409.59
2023-03-17T01:44:15.775Z,101405.94
2023-03-17T01:46:44.116Z,101398.12
2023-03-17T01:49:12.761Z,101399.81
2023-03-17T01:51:52.696Z,101406.66
2023-03-17T01:54:29.787Z,101397.19
2023-03-17T01:57:04.383Z,101396.06
2023-03-17T01:59:35.910Z,101409.87
2023-03-17T02:02:09.426Z,101405.63
2023-03-17T02:04:39.124Z,101407.34
2023-03-17T02:07:07.016Z,101403.91
2023-03-17T02:09:35.011Z,101406.50
2023-03-17T02:12:03.175Z,101404.78
2023-03-17T02:14:30.829Z,101395.19
2023-03-17T02:16:58.911Z,101409.94
2023-03-17T02:19:26.795Z,101409.00
2023-03-17T02:21:55.964Z,101414.16
2023-03-17T02:24:26.814Z,101406.44
2023-03-17T02:26:56.172Z,101417.56
2023-03-17T02:29:24.389Z,101413.00
2023-03-17T02:31:52.277Z,101413.94
2023-03-17T02:34:21.959Z,101421.69
2023-03-17T02:36:49.960Z,101424.25
2023-03-17T02:39:17.858Z,101417.38
2023-03-17T02:41:46.169Z,101413.06
2023-03-17T02:44:14.641Z,101418.97
2023-03-17T02:46:42.598Z,101412.94
2023-03-17T02:49:11.891Z,101437.03
2023-03-17T02:51:40.017Z,101429.28
2023-03-17T02:54:07.934Z,101434.44
2023-03-17T02:56:35.925Z,101432.59
2023-03-17T02:59:04.475Z,101453.38
2023-03-17T03:01:32.273Z,101450.84
2023-03-17T03:03:59.955Z,101452.56
2023-03-17T03:06:27.901Z,101451.44
2023-03-17T03:08:55.476Z,101447.28
2023-03-17T03:11:23.417Z,101459.38
2023-03-17T03:13:51.305Z,101458.59
2023-03-17T03:16:18.913Z,101469.75
2023-03-17T03:18:46.541Z,101464.59
2023-03-17T03:21:14.489Z,101461.84
2023-03-17T03:23:43.348Z,101466.91
2023-03-17T03:26:10.862Z,101467.72
2023-03-17T03:28:38.698Z,101469.50
2023-03-17T03:31:06.783Z,101453.16
2023-03-17T03:33:34.759Z,101470.47
2023-03-17T03:36:03.063Z,101472.12
2023-03-17T03:38:30.804Z,101471.13
2023-03-17T03:40:58.394Z,101477.97
2023-03-17T03:43:26.296Z,101468.53
2023-03-17T03:45:54.691Z,101474.59
2023-03-17T03:48:22.850Z,101472.84
2023-03-17T03:50:50.751Z,101475.38
2023-03-17T03:53:18.519Z,101474.44
2023-03-17T03:55:46.086Z,101478.72
2023-03-17T03:58:14.084Z,101479.69
2023-03-17T04:00:41.638Z,101466.72
2023-03-17T04:03:09.607Z,101470.22
2023-03-17T04:05:37.249Z,101480.66
2023-03-17T04:08:05.342Z,101472.94
2023-03-17T04:10:33.793Z,101478.94
2023-03-17T04:13:01.407Z,101478.88
2023-03-17T04:15:29.302Z,101466.47
2023-03-17T04:17:57.175Z,101475.22
2023-03-17T04:20:24.794Z,101478.75
2023-03-17T04:22:52.474Z,101476.16
2023-03-17T04:25:20.383Z,101466.31
2023-03-17T04:27:48.157Z,101466.84
2023-03-17T04:30:17.042Z,101473.34
2023-03-17T04:32:46.402Z,101471.00
2023-03-17T04:35:17.467Z,101476.84
2023-03-17T04:37:45.661Z,101474.59
2023-03-17T04:40:14.499Z,101469.47
2023-03-17T04:42:42.227Z,101473.50
2023-03-17T04:45:12.653Z,101480.22
2023-03-17T04:47:40.531Z,101485.47
2023-03-17T04:50:09.020Z,101474.19
2023-03-17T04:52:37.512Z,101487.41
2023-03-17T04:55:06.867Z,101483.19
2023-03-17T04:57:34.896Z,101490.09
2023-03-17T05:00:05.104Z,101490.94
2023-03-17T05:02:33.054Z,101496.22
2023-03-17T05:05:01.185Z,101500.63
2023-03-17T05:07:29.178Z,101491.94
2023-03-17T05:09:57.798Z,101488.28
2023-03-17T05:12:25.461Z,101501.22
2023-03-17T05:14:53.309Z,101491.78
2023-03-17T05:17:20.854Z,101508.97
2023-03-17T05:19:48.365Z,101502.25
2023-03-17T05:22:16.692Z,101489.28
2023-03-17T05:24:44.763Z,101495.47
2023-03-17T05:27:12.288Z,101492.09
2023-03-17T05:29:40.289Z,101497.97
2023-03-17T05:32:07.802Z,101497.31
2023-03-17T05:34:35.352Z,101497.44
2023-03-17T05:37:03.423Z,101495.00
2023-03-17T05:39:30.958Z,101500.22
2023-03-17T05:41:58.541Z,101490.69
2023-03-17T05:44:26.325Z,101496.81
2023-03-17T05:46:55.291Z,101498.78
2023-03-17T05:49:22.928Z,101504.91
2023-03-17T05:51:51.200Z,101492.00
2023-03-17T05:54:18.847Z,101508.53
2023-03-17T05:56:46.756Z,101506.16
2023-03-17T05:59:16.761Z,101506.22
2023-03-17T06:01:44.582Z,101510.69
2023-03-17T06:04:12.801Z,101512.50
2023-03-17T06:06:40.421Z,101512.72
2023-03-17T06:09:08.500Z,101517.94
2023-03-17T06:11:36.999Z,101525.06
2023-03-17T06:14:04.562Z,101519.09
2023-03-17T06:16:33.284Z,101512.34
2023-03-17T06:19:01.546Z,101516.78
2023-03-17T06:21:29.179Z,101517.78
2023-03-17T06:23:56.772Z,101525.63
2023-03-17T06:26:24.707Z,101533.50
2023-03-17T06:28:52.185Z,101527.56
2023-03-17T06:31:20.378Z,101532.91
2023-03-17T06:33:48.555Z,101540.72
2023-03-17T06:36:17.022Z,101540.84
2023-03-17T06:38:46.124Z,101547.88
2023-03-17T06:41:13.875Z,101551.44
2023-03-17T06:43:42.090Z,101551.53
2023-03-17T06:46:09.933Z,101550.75
2023-03-17T06:48:38.421Z,101552.59
2023-03-17T06:51:06.352Z,101555.34
2023-03-17T06:53:33.984Z,101554.50
2023-03-17T06:56:02.262Z,101548.53
2023-03-17T06:58:30.720Z,101553.78
2023-03-17T07:00:59.857Z,101562.53
2023-03-17T07:03:27.920Z,101560.91
2023-03-17T07:05:55.522Z,101563.56
2023-03-17T07:08:23.238Z,101562.78
2023-03-17T07:10:55.980Z,101563.69
2023-03-17T07:13:24.578Z,101561.19
2023-03-17T07:15:55.229Z,101544.81
2023-03-17T07:18:23.769Z,101535.31
2023-03-17T07:20:51.361Z,101544.94
2023-03-17T07:23:21.754Z,101531.97
2023-03-17T07:25:50.332Z,101547.62
2023-03-17T07:28:19.242Z,101558.06
2023-03-17T07:30:48.564Z,101559.84
2023-03-17T07:33:17.830Z,101545.16
2023-03-17T07:35:45.429Z,101542.56
2023-03-17T07:38:13.275Z,101552.09
2023-03-17T07:40:41.377Z,101552.94
2023-03-17T07:43:09.562Z,101552.84
2023-03-17T07:45:38.288Z,101544.84
2023-03-17T07:48:06.815Z,101551.63
2023-03-17T07:50:35.603Z,101548.16
2023-03-17T07:53:03.957Z,101543.72
2023-03-17T07:55:32.683Z,101550.12
2023-03-17T07:58:00.906Z,101543.31
2023-03-17T08:00:29.185Z,101542.44
2023-03-17T08:03:09.307Z,101534.72
2023-03-17T08:05:38.076Z,101546.69
2023-03-17T08:08:06.818Z,101536.22
2023-03-17T08:10:35.039Z,101541.25
2023-03-17T08:13:03.000Z,101541.25
2023-03-17T08:15:31.394Z,101538.34
2023-03-17T08:18:01.403Z,101532.97
2023-03-17T08:20:30.465Z,101533.72
2023-03-17T08:23:00.927Z,101536.28
2023-03-17T08:25:28.856Z,101535.94
2023-03-17T08:27:56.363Z,101525.41
2023-03-17T08:30:24.228Z,101523.62
2023-03-17T08:32:54.028Z,101537.97
2023-03-17T08:35:21.553Z,101541.31
2023-03-17T08:37:49.405Z,101525.16
2023-03-17T08:40:19.745Z,101533.69
2023-03-17T08:42:48.659Z,101532.94
2023-03-17T08:45:19.026Z,101533.47
2023-03-17T08:47:48.460Z,101532.22
2023-03-17T08:50:21.047Z,101528.19
2023-03-17T08:52:49.138Z,101529.63
2023-03-17T08:55:17.421Z,101538.16
2023-03-17T08:57:46.223Z,101532.66
2023-03-17T09:00:16.138Z,101532.84
2023-03-17T09:02:45.002Z,101534.66
2023-03-17T09:05:15.209Z,101540.88
2023-03-17T09:07:43.566Z,101538.16
2023-03-17T09:10:13.712Z,101534.53
2023-03-17T09:12:41.584Z,101527.31
2023-03-17T09:15:10.272Z,101537.16
2023-03-17T09:17:38.030Z,101541.75
2023-03-17T09:20:06.605Z,101542.53
2023-03-17T09:22:34.350Z,101536.62
2023-03-17T09:25:02.254Z,101540.62
2023-03-17T09:27:29.868Z,101531.38
2023-03-17T09:29:58.004Z,101533.94
2023-03-17T09:32:25.893Z,101536.75
2023-03-17T09:34:53.964Z,101523.66
2023-03-17T09:37:22.208Z,101519.41
2023-03-17T09:39:50.311Z,101517.41
2023-03-17T09:42:28.077Z,101529.09
2023-03-17T09:45:02.830Z,101523.84
2023-03-17T09:47:41.085Z,101527.19
2023-03-17T09:50:18.526Z,101526.31
2023-03-17T09:52:46.175Z,101534.53
2023-03-17T09:55:23.184Z,101528.28
2023-03-17T09:57:52.351Z,101521.72
2023-03-17T10:00:26.739Z,101533.31
2023-03-17T10:02:55.893Z,101533.03
2023-03-17T10:05:26.826Z,101521.16
2023-03-17T10:08:29.588Z,101520.69
2023-03-17T10:11:20.496Z,101519.13
2023-03-17T10:13:55.322Z,101517.25
2023-03-17T10:16:29.804Z,101515.16
2023-03-17T10:19:12.490Z,101520.81
2023-03-17T10:21:48.581Z,101530.34
2023-03-17T10:24:17.044Z,101515.50
2023-03-17T10:26:47.008Z,101512.47
2023-03-17T10:29:22.631Z,101507.06
2023-03-17T10:31:52.155Z,101507.38
2023-03-17T10:34:23.893Z,101510.19
2023-03-17T10:37:02.000Z,101504.03
2023-03-17T10:39:32.471Z,101502.91
2023-03-17T10:42:11.688Z,101501.78
2023-03-17T10:44:44.011Z,101505.34
2023-03-17T10:47:32.278Z,101495.53
2023-03-17T10:50:15.487Z,101497.66
2023-03-17T10:52:44.638Z,101492.94
2023-03-17T10:55:16.417Z,101498.34
2023-03-17T10:57:55.317Z,101488.38
2023-03-17T11:00:24.699Z,101476.91
2023-03-17T11:02:57.989Z,101476.06
2023-03-17T11:05:30.005Z,101484.94
2023-03-17T11:08:07.197Z,101481.34
2023-03-17T11:10:38.148Z,101465.47
2023-03-17T11:13:21.294Z,101456.50
2023-03-17T11:15:54.458Z,101466.91
2023-03-17T11:18:25.505Z,101445.16
2023-03-17T11:21:01.825Z,101453.22
2023-03-17T11:23:43.077Z,101456.44
2023-03-17T11:26:28.881Z,101454.50
2023-03-17T11:29:16.747Z,101441.62
2023-03-17T11:31:53.807Z,101444.19
2023-03-17T11:34:48.552Z,101449.06
2023-03-17T11:37:34.175Z,101438.22
2023-03-17T11:40:12.127Z,101442.12
2023-03-17T11:43:11.393Z,101439.22
2023-03-17T11:45:54.310Z,101434.91
2023-03-17T11:49:01.033Z,101431.47
2023-03-17T11:51:37.531Z,101429.03
2023-03-17T11:54:12.469Z,101426.53
2023-03-17T11:56:43.130Z,101415.22
2023-03-17T11:59:42.237Z,101406.84
2023-03-17T12:02:31.660Z,101403.97
2023-03-17T12:05:02.574Z,101392.84
2023-03-17T12:07:35.685Z,101403.66
2023-03-17T12:10:21.921Z,101396.34
2023-03-17T12:13:03.097Z,101393.69
2023-03-17T12:15:42.023Z,101394.91
2023-03-17T12:18:21.721Z,101387.59
2023-03-17T12:20:56.019Z,101387.06
2023-03-17T12:23:33.135Z,101385.09
2023-03-17T12:26:08.418Z,101382.78
2023-03-17T12:28:42.054Z,101379.16
2023-03-17T12:31:14.467Z,101376.63
2023-03-17T12:34:02.802Z,101371.91
2023-03-17T12:36:31.264Z,101370.75
2023-03-17T12:38:59.241Z,101362.84
2023-03-17T12:41:42.990Z,101360.97
2023-03-17T12:44:24.306Z,101355.53
2023-03-17T12:47:32.743Z,101349.97
2023-03-17T12:50:04.639Z,101353.84
2023-03-17T12:52:38.554Z,101342.06
2023-03-17T12:55:13.741Z,101351.47
2023-03-17T12:57:43.951Z,101342.13
2023-03-17T13:00:15.417Z,101331.56
2023-03-17T13:02:46.210Z,101329.94
2023-03-17T13:05:16.522Z,101334.28
2023-03-17T13:08:13.951Z,101332.91
2023-03-17T13:10:48.153Z,101322.34
2023-03-17T13:13:41.688Z,101319.81
2023-03-17T13:16:30.067Z,101315.88
2023-03-17T13:19:24.575Z,101317.69
2023-03-17T13:22:06.301Z,101315.72
2023-03-17T13:24:51.989Z,101309.59
2023-03-17T13:27:32.492Z,101312.84
2023-03-17T13:30:22.876Z,101303.22
2023-03-17T13:33:04.169Z,101290.38
2023-03-17T13:35:53.961Z,101290.44
2023-03-17T13:38:35.496Z,101298.72
2023-03-17T13:41:03.140Z,101294.53
2023-03-17T13:43:52.255Z,101283.34
2023-03-17T13:46:24.476Z,101280.94
2023-03-17T13:48:54.772Z,101272.59
2023-03-17T13:51:27.573Z,101273.66
2023-03-17T13:53:59.185Z,101271.53
2023-03-17T13:56:42.209Z,101267.28
2023-03-17T13:59:18.256Z,101261.88
2023-03-17T14:02:02.825Z,101267.00
2023-03-17T14:05:13.269Z,101264.37
2023-03-17T14:07:48.035Z,101265.69
2023-03-17T14:10:21.925Z,101258.91
2023-03-17T14:13:12.506Z,101248.81
2023-03-17T14:16:05.806Z,101253.25
2023-03-17T14:18:39.380Z,101250.84
2023-03-17T14:21:18.492Z,101247.13
2023-03-17T14:23:56.735Z,101241.41
2023-03-17T14:26:25.761Z,101245.75
2023-03-17T14:28:53.587Z,101240.47
2023-03-17T14:31:24.558Z,101227.03
2023-03-17T14:33:55.737Z,101235.19
2023-03-17T14:36:23.952Z,101235.69
2023-03-17T14:38:54.332Z,101234.66
2023-03-17T14:41:30.350Z,101231.78
2023-03-17T14:44:00.402Z,101233.50
2023-03-17T14:46:32.232Z,101227.59
2023-03-17T14:49:04.001Z,101235.84
2023-03-17T14:51:39.112Z,101224.72
2023-03-17T14:54:15.507Z,101232.06
2023-03-17T14:56:50.943Z,101230.03
2023-03-17T14:59:34.849Z,101225.16
2023-03-17T15:02:16.592Z,101224.56
2023-03-17T15:04:53.594Z,101226.03
2023-03-17T15:07:41.271Z,101218.81
2023-03-17T15:10:31.047Z,101218.50
2023-03-17T15:13:04.094Z,101216.81
2023-03-17T15:15:34.119Z,101220.22
2023-03-17T15:18:10.340Z,101218.72
2023-03-17T15:20:38.273Z,101223.16
2023-03-17T15:23:17.135Z,101208.28
2023-03-17T15:25:47.135Z,101210.00
2023-03-17T15:28:17.277Z,101224.06
2023-03-17T15:30:50.266Z,101203.44
2023-03-17T15:33:21.985Z,101215.97
2023-03-17T15:35:50.570Z,101217.72
2023-03-17T15:38:18.914Z,101205.69
2023-03-17T15:40:46.473Z,101207.59
2023-03-17T15:43:15.668Z,101208.72
2023-03-17T15:45:45.137Z,101199.44
2023-03-17T15:48:19.526Z,101203.84
2023-03-17T15:50:49.176Z,101208.00
2023-03-17T15:53:17.038Z,101205.31
2023-03-17T15:55:44.755Z,101194.84
2023-03-17T15:58:12.985Z,101197.78
2023-03-17T16:00:41.501Z,101194.50
2023-03-17T16:03:29.367Z,101185.94
2023-03-17T16:05:56.955Z,101181.81
2023-03-17T16:08:24.945Z,101189.03
2023-03-17T16:10:52.658Z,101184.88
2023-03-17T16:13:20.309Z,101178.25
2023-03-17T16:16:15.904Z,101187.09
2023-03-17T16:18:43.926Z,101187.47
2023-03-17T16:21:12.463Z,101185.09
2023-03-17T16:23:40.702Z,101187.13
2023-03-17T16:26:15.554Z,101189.22
2023-03-17T16:28:46.345Z,101186.94
2023-03-17T16:31:19.904Z,101193.44
2023-03-17T16:33:48.303Z,101183.91
2023-03-17T16:36:17.628Z,101182.97
2023-03-17T16:38:45.899Z,101190.94
2023-03-17T16:41:19.147Z,101188.56
2023-03-17T16:43:51.264Z,101185.28
2023-03-17T16:46:20.841Z,101190.81
2023-03-17T16:48:49.808Z,101192.16
2023-03-17T16:51:17.971Z,101191.53
2023-03-17T16:53:45.965Z,101193.47
2023-03-17T16:56:16.604Z,101191.88
2023-03-17T16:58:45.132Z,101192.28
2023-03-17T17:01:16.369Z,101185.84
2023-03-17T17:03:44.733Z,101191.94
2023-03-17T17:06:14.486Z,101202.84
2023-03-17T17:08:43.833Z,101198.09
2023-03-17T17:11:13.357Z,101205.59
2023-03-17T17:13:42.637Z,101202.31
2023-03-17T17:16:18.010Z,101207.56
2023-03-17T17:18:47.346Z,101204.22
2023-03-17T17:21:16.676Z,101203.56
2023-03-17T17:23:46.180Z,101201.94
2023-03-17T17:26:14.049Z,101206.53
2023-03-17T17:28:42.803Z,101213.59
2023-03-17T17:31:10.930Z,101211.91
2023-03-17T17:33:38.800Z,101200.69
2023-03-17T17:36:13.030Z,101209.28
2023-03-17T17:38:42.067Z,101212.19
2023-03-17T17:41:11.084Z,101218.47
2023-03-17T17:43:39.114Z,101214.44
2023-03-17T17:46:11.926Z,101216.47
2023-03-17T17:48:39.896Z,101219.06
2023-03-17T17:51:07.666Z,101225.28
2023-03-17T17:53:35.235Z,101222.72
2023-03-17T17:56:03.490Z,101221.91
2023-03-17T17:58:32.556Z,101217.56
2023-03-17T18:01:00.739Z,101204.88
2023-03-17T18:03:31.538Z,101212.72
2023-03-17T18:06:00.920Z,101217.25
2023-03-17T18:08:29.150Z,101207.75
2023-03-17T18:10:57.386Z,101227.41
2023-03-17T18:13:25.738Z,101223.31
2023-03-17T18:15:53.722Z,101219.00
2023-03-17T18:18:21.732Z,101215.75
2023-03-17T18:20:49.605Z,101224.53
2023-03-17T18:23:17.771Z,101231.75
2023-03-17T18:25:45.324Z,101224.06
2023-03-17T18:28:13.341Z,101218.97
2023-03-17T18:30:41.384Z,101225.09
2023-03-17T18:33:14.244Z,101212.13
2023-03-17T18:35:45.104Z,101213.97
2023-03-17T18:38:13.285Z,101214.03
2023-03-17T18:40:42.300Z,101204.56
2023-03-17T18:43:10.891Z,101207.31
2023-03-17T18:45:38.787Z,101200.47
2023-03-17T18:48:07.194Z,101195.47
2023-03-17T18:50:37.120Z,101195.63
2023-03-17T18:53:05.434Z,101198.34
2023-03-17T18:55:33.244Z,101194.03
2023-03-17T18:58:01.442Z,101184.62
2023-03-17T19:00:29.872Z,101196.94
2023-03-17T19:02:57.936Z,101190.91
2023-03-17T19:05:25.997Z,101192.75
2023-03-17T19:07:53.996Z,101185.81
2023-03-17T19:10:21.847Z,101183.41
2023-03-17T19:12:50.645Z,101190.47
2023-03-17T19:15:19.595Z,101194.06
2023-03-17T19:17:47.596Z,101192.59
2023-03-17T19:20:15.937Z,101192.66
2023-03-17T19:22:43.424Z,101194.38
2023-03-17T19:25:11.452Z,101198.75
2023-03-17T19:27:40.033Z,101191.19
2023-03-17T19:30:08.908Z,101185.31
2023-03-17T19:32:37.271Z,101190.69
2023-03-17T19:35:07.555Z,101189.06
2023-03-17T19:37:36.095Z,101185.63
2023-03-17T19:40:06.210Z,101190.91
2023-03-17T19:42:35.164Z,101190.94
2023-03-17T19:45:03.804Z,101192.63
2023-03-17T19:47:31.618Z,101190.16
2023-03-17T19:49:59.585Z,101175.44
2023-03-17T19:52:27.433Z,101175.38
2023-03-17T19:54:56.416Z,101180.62
2023-03-17T19:57:24.631Z,101172.19
2023-03-17T19:59:52.178Z,101190.50
2023-03-17T20:02:20.666Z,101189.72
2023-03-17T20:04:49.574Z,101196.72
2023-03-17T20:07:17.390Z,101193.25
2023-03-17T20:09:48.003Z,101188.84
2023-03-17T20:12:16.118Z,101179.37
2023-03-17T20:14:44.087Z,101183.75
2023-03-17T20:17:12.235Z,101182.81
2023-03-17T20:19:40.536Z,101178.47
2023-03-17T20:22:08.827Z,101176.75
2023-03-17T20:24:36.421Z,101177.81
2023-03-17T20:27:05.216Z,101189.09
2023-03-17T20:29:33.480Z,101183.94
2023-03-17T20:32:02.165Z,101189.13
2023-03-17T20:34:31.843Z,101183.94
2023-03-17T20:36:59.395Z,101184.78
2023-03-17T20:39:27.272Z,101178.00
2023-03-17T20:41:55.677Z,101184.06
2023-03-17T20:44:24.071Z,101183.19
2023-03-17T20:46:53.091Z,101182.34
2023-03-17T20:49:21.173Z,101180.62
2023-03-17T20:51:48.989Z,101178.06
2023-03-17T20:54:17.999Z,101170.25
2023-03-17T20:56:45.900Z,101172.87
2023-03-17T20:59:13.652Z,101171.16
2023-03-17T21:01:42.690Z,101166.00
2023-03-17T21:04:12.644Z,101174.69
2023-03-17T21:06:41.564Z,101169.53
2023-03-17T21:09:10.136Z,101160.00
2023-03-17T21:11:38.279Z,101162.56
2023-03-17T21:14:09.388Z,101158.25
2023-03-17T21:16:37.295Z,101153.91
2023-03-17T21:19:09.684Z,101148.78
2023-03-17T21:21:37.712Z,101144.47
2023-03-17T21:24:07.102Z,101146.19
2023-03-17T21:26:35.330Z,101145.34
2023-03-17T21:29:03.161Z,101152.31
2023-03-17T21:31:31.409Z,101142.78
2023-03-17T21:33:59.302Z,101131.56
2023-03-17T21:36:27.442Z,101141.09
2023-03-17T21:38:55.239Z,101136.81
2023-03-17T21:41:34.199Z,101137.66
2023-03-17T21:44:03.317Z,101133.31
2023-03-17T21:46:31.761Z,101125.59
2023-03-17T21:49:00.454Z,101129.03
2023-03-17T21:51:28.781Z,101128.19
2023-03-17T21:53:57.802Z,101133.38
2023-03-17T21:56:25.410Z,101135.97
2023-03-17T21:58:53.615Z,101129.06
2023-03-17T22:01:24.383Z,101125.63
2023-03-17T22:03:52.524Z,101120.44
2023-03-17T22:06:20.768Z,101121.28
2023-03-17T22:08:48.899Z,101120.41
2023-03-17T22:11:18.781Z,101127.31
2023-03-17T22:13:46.937Z,101130.81
2023-03-17T22:16:15.959Z,101124.75
2023-03-17T22:18:44.229Z,101121.28
2023-03-17T22:21:11.826Z,101119.56
2023-03-17T22:23:42.675Z,101121.28
2023-03-17T22:26:18.961Z,101117.81
2023-03-17T22:28:47.726Z,101116.09
2023-03-17T22:31:18.437Z,101109.19
2023-03-17T22:33:48.457Z,101100.53
2023-03-17T22:36:17.948Z,101112.63
2023-03-17T22:38:46.086Z,101112.63
2023-03-17T22:41:16.633Z,101110.03
2023-03-17T22:43:45.044Z,101100.53
2023-03-17T22:46:13.864Z,101105.72
2023-03-17T22:48:41.538Z,101107.44
2023-03-17T22:51:17.340Z,101109.19
2023-03-17T22:53:45.569Z,101097.94
2023-03-17T22:56:14.855Z,101103.09
2023-03-17T22:58:43.384Z,101108.28
2023-03-17T23:01:12.517Z,101100.53
2023-03-17T23:03:40.767Z,101104.84
2023-03-17T23:06:09.007Z,101110.00
2023-03-17T23:08:38.519Z,101105.66
2023-03-17T23:11:08.807Z,101103.97
2023-03-17T23:13:37.464Z,101097.91
2023-03-17T23:16:06.404Z,101106.53
2023-03-17T23:18:34.708Z,101100.47
2023-03-17T23:21:03.439Z,101094.44
2023-03-17T23:23:31.372Z,101094.47
2023-03-17T23:25:59.382Z,101100.50
2023-03-17T23:28:27.311Z,101086.69
2023-03-17T23:30:55.369Z,101107.44
2023-03-17T23:33:25.572Z,101103.12
2023-03-17T23:35:53.329Z,101096.19
2023-03-17T23:38:21.525Z,101102.19
2023-03-17T23:40:49.626Z,101104.78
2023-03-17T23:43:17.508Z,101109.88
2023-03-17T23:45:45.510Z,101110.69
2023-03-17T23:48:13.670Z,101095.19
2023-03-17T23:50:42.425Z,101103.00
2023-03-17T23:53:11.590Z,101094.34
2023-03-17T23:55:40.160Z,101096.97
2023-03-17T23:58:07.954Z,101097.84
